Time;durP1;ratioP1;P1;durP2;ratioP2;P2;SDS_P1;SDS_P2;PMS_P1;PMS_P2;Temp;Humidity;BMP_temperature;BMP_pressure;BME280_temperature;BME280_humidity;BME280_pressure;Samples;Min_cycle;Max_cycle;Signal;HPM_P1;HPM_P2
2022/06/01 00:02:37;;;;;;;;;6.00;6.00;;;;;21.01;39.33;98470.63;6279130;27;97653;-71
2022/06/01 00:05:41;;;;;;;;;6.60;6.60;;;;;21.07;39.09;98469.44;6277397;27;96712;-68
2022/06/01 00:08:46;;;;;;;;;6.80;6.00;;;;;21.12;38.90;98480.31;6259679;27;97703;-68
2022/06/01 00:11:49;;;;;;;;;6.00;6.00;;;;;21.18;38.54;98489.31;6278592;27;97661;-68
2022/06/01 00:14:52;;;;;;;;;8.00;7.00;;;;;21.24;38.40;98493.59;6277368;27;97406;-69
2022/06/01 00:17:57;;;;;;;;;7.00;6.00;;;;;21.28;38.03;98493.81;6277806;27;98259;-69
2022/06/01 00:21:00;;;;;;;;;6.67;5.67;;;;;21.33;37.96;98475.34;6242256;27;97208;-68
2022/06/01 00:24:05;;;;;;;;;6.25;6.00;;;;;21.35;38.00;98475.06;6279296;27;96919;-69
2022/06/01 00:27:09;;;;;;;;;6.00;6.00;;;;;21.34;38.38;98467.94;6251810;27;98643;-71
2022/06/01 00:30:16;;;;;;;;;5.00;5.00;;;;;21.41;38.55;98479.31;6258004;27;98477;-69
2022/06/01 00:33:19;;;;;;;;;6.80;6.00;;;;;21.44;38.08;98476.78;6260253;27;98520;-69
2022/06/01 00:36:23;;;;;;;;;8.00;7.00;;;;;21.44;38.68;98465.00;6276890;27;96529;-69
2022/06/01 00:39:28;;;;;;;;;7.40;6.40;;;;;21.46;38.46;98473.72;6272840;27;97137;-71
2022/06/01 00:42:34;;;;;;;;;6.00;6.00;;;;;21.40;38.30;98467.56;6278613;27;97378;-72
2022/06/01 00:45:37;;;;;;;;;7.75;7.00;;;;;21.45;37.86;98481.13;6261169;27;96883;-71
2022/06/01 00:48:46;;;;;;;;;7.00;6.00;;;;;21.48;38.46;98479.75;6281998;27;96796;-68
2022/06/01 00:51:50;;;;;;;;;8.00;7.40;;;;;21.52;38.56;98476.09;6265293;27;96900;-72
2022/06/01 00:54:56;;;;;;;;;7.00;6.00;;;;;21.54;38.70;98487.56;6273619;27;98332;-72
2022/06/01 00:58:04;;;;;;;;;8.20;8.20;;;;;21.51;39.02;98481.88;6284694;27;97741;-70
2022/06/01 01:01:12;;;;;;;;;9.75;8.50;;;;;21.43;39.42;98472.41;6259841;27;97559;-72
2022/06/01 01:04:16;;;;;;;;;9.00;9.00;;;;;21.40;39.42;98480.44;6278320;27;96818;-70
2022/06/01 01:07:20;;;;;;;;;7.40;7.40;;;;;21.37;39.39;98478.28;6249162;27;97233;-69
2022/06/01 01:10:24;;;;;;;;;8.00;7.00;;;;;21.31;39.86;98477.56;6275730;27;96708;-72
2022/06/01 01:13:28;;;;;;;;;9.50;9.00;;;;;21.26;39.72;98474.91;6277624;27;99281;-68
2022/06/01 01:16:31;;;;;;;;;8.40;7.80;;;;;21.21;39.92;98482.44;6280216;27;97550;-69
2022/06/01 01:19:38;;;;;;;;;9.00;8.00;;;;;21.08;39.99;98465.59;6277536;27;97052;-71
2022/06/01 01:22:52;;;;;;;;;8.40;8.40;;;;;21.10;40.12;98474.34;6263368;27;98100;-69
2022/06/01 01:25:57;;;;;;;;;8.00;8.00;;;;;21.02;39.88;98475.00;6269677;27;96735;-69
2022/06/01 01:29:00;;;;;;;;;8.20;7.20;;;;;21.03;40.23;98481.31;6276713;27;99627;-69
2022/06/01 01:32:07;;;;;;;;;9.60;8.60;;;;;21.03;40.33;98481.31;6280183;27;97468;-69
2022/06/01 01:35:10;;;;;;;;;8.75;8.25;;;;;21.03;40.30;98481.31;6256873;27;98638;-69
2022/06/01 01:38:22;;;;;;;;;8.00;7.00;;;;;21.01;40.79;98478.88;6277648;27;98932;-72
2022/06/01 01:41:31;;;;;;;;;7.00;7.00;;;;;20.91;40.69;98457.13;6277415;27;97078;-70
2022/06/01 01:44:41;;;;;;;;;8.00;7.80;;;;;20.92;41.09;98460.66;6261081;27;97016;-69
2022/06/01 01:47:45;;;;;;;;;9.25;9.00;;;;;20.87;41.31;98460.75;6260621;27;97645;-71
2022/06/01 01:50:49;;;;;;;;;8.00;8.00;;;;;20.84;41.06;98455.88;6275234;27;97824;-71
2022/06/01 01:53:54;;;;;;;;;7.75;7.00;;;;;20.85;41.52;98454.75;6262866;27;96751;-71
2022/06/01 01:57:18;;;;;;;;;6.80;6.80;;;;;20.66;41.55;98439.19;6272475;27;97791;-70
2022/06/01 02:00:25;;;;;;;;;10.00;9.00;;;;;20.73;42.22;98464.25;6260434;27;98212;-70
2022/06/01 02:03:33;;;;;;;;;10.00;10.00;;;;;20.70;42.17;98456.63;6256136;27;98272;-71
2022/06/01 02:06:41;;;;;;;;;10.00;9.00;;;;;20.72;42.14;98448.91;6265929;27;97859;-69
2022/06/01 02:13:07;;;;;;;;;9.00;9.00;;;;;20.68;42.32;98472.53;6263489;27;98643;-71
2022/06/01 02:16:11;;;;;;;;;11.40;9.40;;;;;20.66;42.64;98463.84;6282118;27;96966;-71
2022/06/01 02:19:25;;;;;;;;;9.00;9.00;;;;;20.59;42.62;98463.38;6275559;27;97597;-69
2022/06/01 02:22:29;;;;;;;;;11.00;11.00;;;;;20.60;42.92;98473.22;6272079;27;97698;-69
2022/06/01 02:25:33;;;;;;;;;12.00;11.00;;;;;20.58;43.41;98478.19;6269508;27;97481;-71
2022/06/01 02:28:41;;;;;;;;;12.00;10.00;;;;;20.57;43.49;98473.03;6263736;27;97681;-71
2022/06/01 02:31:46;;;;;;;;;13.00;12.00;;;;;20.52;43.53;98470.34;6275931;27;96820;-72
2022/06/01 02:34:51;;;;;;;;;14.00;12.00;;;;;20.46;43.87;98455.91;6280785;27;97774;-70
2022/06/01 02:37:58;;;;;;;;;13.00;13.00;;;;;20.43;44.05;98459.22;6283890;27;97513;-68
2022/06/01 02:41:02;;;;;;;;;14.20;13.00;;;;;20.41;44.02;98464.19;6286511;27;96562;-70
2022/06/01 02:44:07;;;;;;;;;14.40;13.00;;;;;20.40;44.12;98459.00;6298313;27;97134;-72
2022/06/01 02:47:11;;;;;;;;;12.00;12.00;;;;;20.41;44.49;98477.06;6285916;27;97916;-70
2022/06/01 02:50:18;;;;;;;;;13.00;12.00;;;;;20.38;44.21;98483.16;6268258;27;96463;-71
2022/06/01 02:53:21;;;;;;;;;12.60;11.60;;;;;20.37;44.52;98490.56;6264064;27;96915;-69
2022/06/01 02:56:25;;;;;;;;;13.00;11.00;;;;;20.38;44.62;98492.16;6266109;27;99673;-71
2022/06/01 02:59:31;;;;;;;;;10.40;9.00;;;;;20.23;43.42;98482.19;6283575;27;96646;-71
2022/06/01 03:02:34;;;;;;;;;10.00;9.20;;;;;20.20;43.35;98501.13;6278695;27;97518;-71
2022/06/01 03:05:40;;;;;;;;;10.00;9.60;;;;;20.28;43.93;98503.25;6255591;27;98513;-70
2022/06/01 03:08:45;;;;;;;;;10.00;10.00;;;;;20.27;44.15;98518.84;6284378;27;98042;-69
2022/06/01 03:11:49;;;;;;;;;14.00;13.00;;;;;20.23;44.29;98511.53;6283227;27;97035;-69
2022/06/01 03:14:53;;;;;;;;;12.80;12.80;;;;;20.18;44.51;98514.31;6278998;27;97393;-71
2022/06/01 03:17:57;;;;;;;;;13.50;12.50;;;;;20.15;44.40;98523.09;6266904;27;96705;-69
2022/06/01 03:21:01;;;;;;;;;13.25;12.00;;;;;20.13;44.81;98534.34;6269210;27;97218;-71
2022/06/01 03:24:06;;;;;;;;;12.75;12.00;;;;;20.04;44.87;98524.31;6265648;27;98469;-69
2022/06/01 03:27:09;;;;;;;;;12.80;11.80;;;;;20.07;45.08;98538.25;6284957;27;97525;-69
2022/06/01 03:30:16;;;;;;;;;14.00;13.00;;;;;19.96;45.30;98546.84;6282578;27;96673;-69
2022/06/01 03:33:20;;;;;;;;;14.00;13.00;;;;;19.85;45.46;98563.38;6274988;27;99655;-69
2022/06/01 03:36:23;;;;;;;;;14.60;13.00;;;;;19.65;45.81;98563.59;6266335;27;97757;-72
2022/06/01 03:39:27;;;;;;;;;15.00;14.00;;;;;19.39;46.90;98568.47;6270503;27;97708;-71
2022/06/01 03:42:31;;;;;;;;;15.00;13.80;;;;;19.30;47.40;98561.16;6281017;27;97445;-71
2022/06/01 03:45:59;;;;;;;;;14.75;14.00;;;;;19.22;47.56;98559.03;6266844;27;97417;-69
2022/06/01 03:49:02;;;;;;;;;16.00;14.00;;;;;19.32;47.24;98565.22;6288247;27;96857;-69
2022/06/01 03:52:07;;;;;;;;;16.00;16.00;;;;;19.29;47.69;98573.19;6282109;27;97935;-72
2022/06/01 03:55:10;;;;;;;;;16.00;15.60;;;;;19.28;47.91;98579.75;6265125;27;98672;-71
2022/06/01 03:58:15;;;;;;;;;18.00;16.40;;;;;19.20;48.08;98575.72;6289322;27;97025;-71
2022/06/01 04:01:20;;;;;;;;;16.50;16.50;;;;;19.16;48.31;98577.38;6264737;27;98100;-72
2022/06/01 04:04:24;;;;;;;;;16.00;15.00;;;;;19.12;48.46;98580.97;6265147;27;97760;-69
2022/06/01 04:07:27;;;;;;;;;18.00;17.00;;;;;19.10;48.54;98594.94;6288052;27;96747;-69
2022/06/01 04:10:30;;;;;;;;;16.60;16.20;;;;;19.08;48.69;98597.13;6272449;27;98346;-69
2022/06/01 04:13:35;;;;;;;;;18.80;16.40;;;;;19.12;48.78;98586.44;6261850;27;99590;-69
2022/06/01 04:16:40;;;;;;;;;18.00;16.00;;;;;19.22;48.68;98581.69;6269971;27;97247;-68
2022/06/01 04:19:44;;;;;;;;;20.00;19.00;;;;;19.12;48.83;98575.50;6276705;27;98535;-71
2022/06/01 04:22:48;;;;;;;;;21.40;18.60;;;;;19.23;49.00;98588.00;6264923;27;97983;-68
2022/06/01 04:25:52;;;;;;;;;18.75;16.00;;;;;19.30;48.75;98581.09;6285277;27;96811;-70
2022/06/01 04:28:55;;;;;;;;;20.00;17.60;;;;;19.37;48.75;98580.78;6263957;27;97564;-68
2022/06/01 04:32:04;;;;;;;;;21.00;19.25;;;;;19.39;48.80;98584.88;6277247;27;97888;-68
2022/06/01 04:35:08;;;;;;;;;22.00;20.00;;;;;19.29;49.09;98592.31;6286566;27;97496;-68
2022/06/01 04:38:14;;;;;;;;;18.75;17.75;;;;;19.48;48.83;98585.09;6288503;27;96535;-71
2022/06/01 04:41:18;;;;;;;;;18.00;17.00;;;;;19.53;48.92;98584.22;6264178;27;97058;-71
2022/06/01 04:44:21;;;;;;;;;19.00;17.20;;;;;19.70;48.31;98590.06;6248746;27;96832;-69
2022/06/01 04:47:26;;;;;;;;;24.00;19.00;;;;;19.69;48.63;98604.88;6287713;27;97832;-70
2022/06/01 04:50:29;;;;;;;;;18.60;16.80;;;;;19.77;48.41;98617.91;6285211;27;96944;-72
2022/06/01 04:53:33;;;;;;;;;20.00;17.00;;;;;19.87;48.40;98615.91;6270026;27;96916;-70
2022/06/01 04:56:36;;;;;;;;;18.00;17.00;;;;;20.03;48.39;98608.34;6284803;27;98132;-70
2022/06/01 04:59:40;;;;;;;;;17.00;16.00;;;;;20.15;48.05;98606.03;6267009;27;97472;-71
2022/06/01 05:02:44;;;;;;;;;19.80;17.80;;;;;20.23;47.85;98594.41;6266203;27;97925;-69
2022/06/01 05:05:50;;;;;;;;;18.60;17.60;;;;;20.37;47.65;98593.78;6273413;27;97757;-69
2022/06/01 05:08:54;;;;;;;;;15.20;14.20;;;;;20.52;47.93;98602.63;6265255;27;100110;-71
2022/06/01 05:11:57;;;;;;;;;16.00;15.00;;;;;20.69;47.55;98578.28;6268179;27;97178;-70
2022/06/01 05:15:02;;;;;;;;;16.00;15.00;;;;;20.89;46.87;98574.44;6278472;27;96663;-72
2022/06/01 05:18:09;;;;;;;;;16.00;14.60;;;;;21.06;47.05;98582.16;6266366;27;97191;-69
2022/06/01 05:21:13;;;;;;;;;17.00;15.40;;;;;21.17;46.59;98602.81;6275315;27;96532;-68
2022/06/01 05:24:16;;;;;;;;;14.00;13.50;;;;;21.20;46.34;98617.88;6274347;27;96894;-68
2022/06/01 05:27:20;;;;;;;;;17.00;16.00;;;;;21.30;46.51;98604.81;6242877;27;96902;-72
2022/06/01 05:30:23;;;;;;;;;15.20;14.20;;;;;21.43;46.27;98608.72;6282934;27;96635;-72
2022/06/01 05:33:28;;;;;;;;;17.40;15.00;;;;;21.50;45.78;98604.47;6287208;27;97041;-68
2022/06/01 05:36:31;;;;;;;;;14.00;14.00;;;;;21.57;45.99;98604.91;6252611;27;96507;-68
2022/06/01 05:39:34;;;;;;;;;16.80;14.20;;;;;21.69;45.66;98587.19;6271344;27;97077;-71
2022/06/01 05:42:38;;;;;;;;;14.00;13.00;;;;;21.81;45.68;98579.25;6251262;27;96880;-72
2022/06/01 05:45:41;;;;;;;;;16.00;14.00;;;;;21.88;44.81;98586.00;6267377;27;97781;-68
2022/06/01 05:48:46;;;;;;;;;15.20;13.80;;;;;21.88;44.80;98590.66;6268871;27;96707;-72
2022/06/01 05:51:50;;;;;;;;;15.60;13.00;;;;;21.96;45.16;98595.47;6256153;27;97142;-72
2022/06/01 05:54:53;;;;;;;;;12.80;12.20;;;;;22.08;45.14;98595.81;6287427;27;97059;-73
2022/06/01 05:57:57;;;;;;;;;14.00;13.60;;;;;22.07;44.88;98574.97;6267649;27;99508;-73
2022/06/01 06:01:03;;;;;;;;;12.00;11.00;;;;;22.24;44.95;98586.13;6286392;27;97997;-71
2022/06/01 06:04:08;;;;;;;;;10.00;10.00;;;;;22.40;44.67;98583.91;6252072;27;97739;-73
2022/06/01 06:07:12;;;;;;;;;10.80;9.80;;;;;22.67;44.03;98591.31;6270125;27;97537;-68
2022/06/01 06:10:15;;;;;;;;;11.00;10.00;;;;;22.79;43.91;98595.19;6286627;27;96481;-68
2022/06/01 06:13:18;;;;;;;;;10.50;9.00;;;;;22.95;43.26;98608.59;6287713;27;96612;-71
2022/06/01 06:16:22;;;;;;;;;11.00;10.00;;;;;22.99;43.24;98610.41;6286468;27;97323;-71
2022/06/01 06:19:27;;;;;;;;;12.40;10.00;;;;;23.27;42.72;98613.88;6270974;27;97008;-69
2022/06/01 06:22:31;;;;;;;;;11.00;10.00;;;;;23.43;42.35;98606.91;6286443;27;96661;-69
2022/06/01 06:25:34;;;;;;;;;11.00;11.00;;;;;23.48;42.28;98606.81;6286860;27;97523;-71
2022/06/01 06:28:38;;;;;;;;;10.00;9.20;;;;;23.59;41.71;98608.19;6268907;27;97475;-69
2022/06/01 06:31:42;;;;;;;;;10.00;9.40;;;;;23.45;42.14;98601.13;6268825;27;96517;-72
2022/06/01 06:34:51;;;;;;;;;10.00;9.00;;;;;23.55;42.23;98609.13;6287699;27;96539;-72
2022/06/01 06:37:54;;;;;;;;;7.80;7.20;;;;;23.64;41.71;98610.00;6287596;27;97277;-69
2022/06/01 06:40:59;;;;;;;;;11.50;10.00;;;;;23.71;41.45;98618.63;6269170;27;96663;-72
2022/06/01 06:44:03;;;;;;;;;8.60;8.60;;;;;23.78;41.27;98618.19;6287223;27;97482;-69
2022/06/01 06:47:07;;;;;;;;;8.00;8.00;;;;;23.78;41.21;98613.50;6256963;27;99533;-70
2022/06/01 06:50:14;;;;;;;;;10.60;8.60;;;;;23.98;41.42;98615.72;6277777;27;96854;-69
2022/06/01 06:53:38;;;;;;;;;8.00;8.00;;;;;24.11;40.69;98605.72;6287203;27;96835;-70
2022/06/01 06:56:41;;;;;;;;;8.00;8.00;;;;;24.36;40.67;98618.84;6287650;27;96546;-72
2022/06/01 06:59:44;;;;;;;;;8.50;8.50;;;;;24.39;40.18;98633.91;6268940;27;98315;-71
2022/06/01 07:02:48;;;;;;;;;6.00;6.00;;;;;24.29;40.17;98628.72;6286867;27;96298;-71
2022/06/01 07:06:12;;;;;;;;;6.00;6.00;;;;;24.22;40.45;98607.13;6268322;27;97075;-73
2022/06/01 07:09:16;;;;;;;;;5.00;5.00;;;;;24.09;40.62;98611.53;6282290;27;96832;-69
2022/06/01 07:12:19;;;;;;;;;7.00;6.00;;;;;24.17;40.63;98632.88;6251685;27;98605;-69
2022/06/01 07:15:23;;;;;;;;;6.00;6.00;;;;;24.24;41.01;98628.84;6286565;27;97154;-72
2022/06/01 07:18:26;;;;;;;;;6.00;5.00;;;;;24.47;40.59;98633.97;6279234;27;96593;-69
2022/06/01 07:21:32;;;;;;;;;7.20;7.00;;;;;24.46;40.08;98628.75;6265680;27;96933;-69
2022/06/01 07:24:36;;;;;;;;;7.40;6.40;;;;;24.43;40.29;98632.97;6288985;27;96674;-72
2022/06/01 07:27:39;;;;;;;;;5.40;5.40;;;;;24.29;40.17;98629.50;6289388;27;96629;-71
2022/06/01 07:30:47;;;;;;;;;6.00;6.00;;;;;24.12;40.59;98627.47;6261812;27;97753;-69
2022/06/01 07:33:51;;;;;;;;;5.20;5.20;;;;;24.07;40.78;98626.78;6272895;27;96670;-68
2022/06/01 07:43:05;;;;;;;;;5.00;5.00;;;;;24.11;41.33;98622.25;6290992;27;97077;-68
2022/06/01 07:43:41;;;;;;;;;6.80;6.00;;;;;24.44;41.45;98629.06;6272180;27;97765;-69
2022/06/01 07:46:45;;;;;;;;;6.00;6.00;;;;;24.60;41.25;98626.69;6290187;27;96472;-72
2022/06/01 07:49:50;;;;;;;;;5.00;5.00;;;;;24.75;41.27;98628.19;6289732;27;97410;-72
2022/06/01 07:53:16;;;;;;;;;4.00;4.00;;;;;24.77;40.71;98636.97;6274008;27;97752;-70
2022/06/01 07:56:19;;;;;;;;;4.25;3.25;;;;;24.68;40.65;98639.69;6290556;27;96444;-69
2022/06/01 07:59:23;;;;;;;;;3.80;3.80;;;;;24.72;41.20;98648.97;6253844;27;98468;-71
2022/06/01 08:02:26;;;;;;;;;3.00;3.00;;;;;24.57;40.84;98641.13;6289911;27;96673;-68
2022/06/01 08:05:30;;;;;;;;;3.60;3.00;;;;;24.40;41.09;98657.59;6272021;27;97674;-69
2022/06/01 08:08:35;;;;;;;;;4.00;4.00;;;;;24.26;41.27;98663.19;6289859;27;97202;-69
2022/06/01 08:14:59;;;;;;;;;4.00;4.00;;;;;23.77;41.82;98644.06;6287893;27;96557;-71
2022/06/01 08:18:02;;;;;;;;;4.00;4.00;;;;;23.69;42.07;98663.00;6267561;27;98873;-68
2022/06/01 08:21:06;;;;;;;;;2.00;2.00;;;;;23.82;41.75;98672.31;6280503;27;96519;-69
2022/06/01 08:24:12;;;;;;;;;3.80;3.00;;;;;23.75;42.30;98677.41;6289708;27;97847;-70
2022/06/01 08:27:15;;;;;;;;;4.00;4.00;;;;;23.79;42.68;98674.88;6275839;27;97470;-72
2022/06/01 08:30:21;;;;;;;;;4.40;4.00;;;;;23.86;43.70;98681.56;6302319;27;97376;-72
2022/06/01 08:33:24;;;;;;;;;4.25;4.25;;;;;23.73;43.03;98680.50;6271089;27;96898;-72
2022/06/01 08:36:28;;;;;;;;;3.20;3.20;;;;;23.68;43.97;98677.06;6271796;27;96497;-72
2022/06/01 08:39:33;;;;;;;;;5.00;5.00;;;;;23.65;44.76;98680.44;6257142;27;97961;-70
2022/06/01 08:42:39;;;;;;;;;5.00;5.00;;;;;23.76;44.16;98684.56;6289942;27;96816;-72
2022/06/01 08:45:49;;;;;;;;;5.00;4.00;;;;;23.79;43.89;98677.63;6290245;27;97453;-70
2022/06/01 08:48:57;;;;;;;;;5.00;5.00;;;;;23.97;44.20;98684.88;6252859;27;98443;-72
2022/06/01 08:52:01;;;;;;;;;5.00;5.00;;;;;24.40;43.48;98674.94;6289711;27;97126;-69
2022/06/01 08:55:07;;;;;;;;;6.00;5.00;;;;;24.74;43.17;98668.75;6270261;27;99561;-72
2022/06/01 08:58:14;;;;;;;;;5.00;5.00;;;;;24.93;41.98;98669.31;6289133;27;96718;-69
2022/06/01 09:01:28;;;;;;;;;5.00;5.00;;;;;25.70;41.76;98670.56;6289029;27;96451;-72
2022/06/01 09:04:42;;;;;;;;;5.20;5.20;;;;;26.54;40.66;98665.16;6253930;27;98618;-72
2022/06/01 09:07:52;;;;;;;;;7.00;7.00;;;;;27.17;37.38;98668.94;6289523;27;97656;-69
2022/06/01 09:11:09;;;;;;;;;5.00;4.20;;;;;27.73;37.13;98669.50;6289416;27;96686;-71
2022/06/01 09:14:19;;;;;;;;;4.60;4.60;;;;;28.32;37.20;98661.75;6289296;27;97152;-69
2022/06/01 09:17:23;;;;;;;;;5.00;5.00;;;;;28.84;34.55;98668.28;6269555;27;97864;-69
2022/06/01 09:23:48;;;;;;;;;5.00;5.00;;;;;28.72;34.63;98667.50;6270130;27;98390;-71
2022/06/01 09:26:59;;;;;;;;;5.00;4.00;;;;;28.44;34.68;98667.31;6288564;27;97566;-72
2022/06/01 09:30:19;;;;;;;;;3.20;3.00;;;;;28.19;34.14;98669.25;6271252;27;96599;-70
2022/06/01 09:33:26;;;;;;;;;5.00;5.00;;;;;28.19;34.58;98660.13;6288694;27;97308;-70
2022/06/01 09:36:29;;;;;;;;;4.00;4.00;;;;;28.23;34.23;98663.81;6289359;27;98044;-70
2022/06/01 09:39:34;;;;;;;;;5.00;5.00;;;;;28.20;34.58;98664.50;6252226;27;98641;-70
2022/06/01 09:42:48;;;;;;;;;5.00;5.00;;;;;28.18;34.42;98667.63;6267168;27;96657;-69
2022/06/01 09:45:54;;;;;;;;;5.00;5.00;;;;;28.15;34.01;98667.50;6287929;27;97451;-69
2022/06/01 09:48:57;;;;;;;;;4.00;4.00;;;;;28.58;33.53;98661.44;6288659;27;96650;-69
2022/06/01 09:52:07;;;;;;;;;2.00;2.00;;;;;28.64;31.98;98671.13;6280886;27;97308;-72
2022/06/01 09:55:16;;;;;;;;;3.00;3.00;;;;;28.77;32.28;98662.53;6276674;27;96610;-70
2022/06/01 10:08:29;;;;;;;;;4.00;3.60;;;;;29.54;32.21;98660.56;6271212;27;96634;-72
2022/06/01 10:11:36;;;;;;;;;3.00;3.00;;;;;29.62;31.35;98669.91;6269146;27;98381;-70
2022/06/01 10:14:43;;;;;;;;;4.00;4.00;;;;;29.74;31.12;98661.53;6274986;27;97663;-69
2022/06/01 10:17:52;;;;;;;;;3.00;3.00;;;;;29.59;30.91;98665.88;6266459;27;98847;-69
2022/06/01 10:21:02;;;;;;;;;4.00;3.80;;;;;29.42;31.20;98649.47;6250302;27;99393;-72
2022/06/01 10:24:11;;;;;;;;;3.00;3.00;;;;;29.53;31.32;98667.28;6275588;27;96741;-70
2022/06/01 10:27:17;;;;;;;;;5.00;4.00;;;;;29.36;31.75;98655.66;6288136;27;96668;-73
2022/06/01 10:30:26;;;;;;;;;4.00;4.00;;;;;29.28;31.98;98666.50;6269544;27;99592;-72
2022/06/01 10:33:35;;;;;;;;;4.00;4.00;;;;;29.55;30.76;98655.84;6283822;27;97874;-70
2022/06/01 10:36:46;;;;;;;;;4.60;4.00;;;;;29.82;29.84;98655.00;6264048;27;96736;-70
2022/06/01 10:39:55;;;;;;;;;4.00;4.00;;;;;29.83;30.22;98656.63;6267068;27;98983;-72
2022/06/01 10:43:17;;;;;;;;;5.00;4.00;;;;;29.78;29.99;98645.78;6287155;27;97481;-73
2022/06/01 10:46:39;;;;;;;;;4.40;4.00;;;;;30.19;30.21;98663.22;6276382;27;97435;-71
2022/06/01 10:49:54;;;;;;;;;5.00;4.00;;;;;30.46;29.06;98659.59;6250193;27;96752;-72
2022/06/01 10:53:04;;;;;;;;;4.00;4.00;;;;;30.30;29.00;98637.28;6286038;27;97441;-71
2022/06/01 10:56:08;;;;;;;;;5.00;5.00;;;;;30.61;29.80;98671.88;6289144;27;97577;-72
2022/06/01 10:59:15;;;;;;;;;6.00;6.00;;;;;30.46;30.18;98671.53;6290413;27;96605;-69
2022/06/01 11:02:46;;;;;;;;;6.00;5.80;;;;;30.58;30.20;98664.25;6291937;27;97410;-72
2022/06/01 11:06:03;;;;;;;;;6.00;5.00;;;;;30.68;28.46;98661.75;6292118;27;96396;-70
2022/06/01 11:09:19;;;;;;;;;4.80;4.80;;;;;30.23;27.35;98669.69;6289702;27;96642;-72
2022/06/01 11:12:34;;;;;;;;;5.50;5.00;;;;;30.49;28.00;98670.81;6288368;27;97444;-70
2022/06/01 11:15:48;;;;;;;;;5.00;4.80;;;;;30.52;25.96;98664.53;6286801;27;97342;-71
2022/06/01 11:19:04;;;;;;;;;5.00;4.50;;;;;30.61;27.43;98669.91;6286028;27;96992;-71
2022/06/01 11:22:22;;;;;;;;;6.00;4.20;;;;;30.90;27.84;98663.88;6287204;27;97526;-73
2022/06/01 11:25:33;;;;;;;;;4.00;4.00;;;;;31.03;26.25;98672.16;6272124;27;97582;-70
2022/06/01 11:28:57;;;;;;;;;4.00;4.00;;;;;31.36;26.98;98673.34;6291194;27;96460;-72
2022/06/01 11:32:04;;;;;;;;;4.25;3.25;;;;;31.39;26.02;98675.38;6272105;27;96645;-68
2022/06/01 11:35:22;;;;;;;;;4.80;4.40;;;;;31.55;24.24;98678.13;6291008;27;97567;-69
2022/06/01 11:38:30;;;;;;;;;4.00;4.00;;;;;31.47;21.80;98669.97;6272341;27;98789;-71
2022/06/01 11:41:38;;;;;;;;;5.00;4.40;;;;;31.48;22.81;98666.00;6291294;27;96403;-71
2022/06/01 11:44:51;;;;;;;;;3.00;3.00;;;;;31.69;23.40;98661.72;6272602;27;96765;-70
2022/06/01 11:47:56;;;;;;;;;4.00;4.00;;;;;31.53;24.44;98660.94;6291519;27;96529;-69
2022/06/01 11:51:13;;;;;;;;;3.00;3.00;;;;;31.79;24.58;98666.72;6289718;27;98000;-69
2022/06/01 11:54:27;;;;;;;;;3.67;3.00;;;;;31.94;24.06;98651.09;6288710;27;97522;-70
2022/06/01 11:57:40;;;;;;;;;4.20;4.00;;;;;32.13;23.63;98676.19;6248300;27;98642;-68
2022/06/01 12:00:52;;;;;;;;;2.00;2.00;;;;;31.86;21.21;98656.91;6252099;27;97314;-70
2022/06/01 12:04:12;;;;;;;;;3.00;3.00;;;;;31.80;22.35;98664.75;6271734;27;96825;-72
2022/06/01 12:07:30;;;;;;;;;3.00;3.00;;;;;31.63;21.49;98663.19;6252860;27;96692;-72
2022/06/01 12:10:54;;;;;;;;;3.00;3.00;;;;;31.50;21.89;98656.13;6275259;27;96679;-71
2022/06/01 12:13:58;;;;;;;;;3.00;3.00;;;;;31.66;21.32;98650.50;6287697;27;97514;-69
2022/06/01 12:17:44;;;;;;;;;2.00;2.00;;;;;31.98;21.54;98649.16;6271819;27;97691;-71
2022/06/01 12:21:12;;;;;;;;;2.00;2.00;;;;;31.92;20.51;98652.59;6257390;27;96526;-69
2022/06/01 12:31:36;;;;;;;;;2.60;2.60;;;;;31.67;20.61;98655.69;6333777;27;96643;-70
2022/06/01 12:35:05;;;;;;;;;3.00;3.00;;;;;31.39;20.41;98627.22;6330057;27;96403;-71
2022/06/01 12:38:14;;;;;;;;;2.40;2.40;;;;;31.54;19.80;98653.41;6324183;27;96735;-72
2022/06/01 12:41:20;;;;;;;;;2.00;2.00;;;;;31.49;20.24;98651.72;6310697;27;97704;-72
2022/06/01 12:44:25;;;;;;;;;3.00;2.00;;;;;31.25;19.79;98644.44;6317412;27;97524;-69
2022/06/01 12:47:31;;;;;;;;;2.00;2.00;;;;;30.61;20.17;98624.59;6323191;27;99132;-72
2022/06/01 12:50:49;;;;;;;;;3.00;3.00;;;;;30.37;21.17;98643.03;6330276;27;96933;-70
2022/06/01 12:53:53;;;;;;;;;2.60;2.60;;;;;30.56;21.38;98631.22;6318974;27;96971;-69
2022/06/01 12:56:57;;;;;;;;;2.80;2.80;;;;;30.68;21.36;98639.50;6306616;27;97520;-72
2022/06/01 13:00:07;;;;;;;;;3.00;3.00;;;;;30.53;20.96;98657.81;6307098;27;97186;-69
2022/06/01 13:03:13;;;;;;;;;3.00;3.00;;;;;30.64;21.89;98635.00;6307963;27;96796;-71
2022/06/01 13:06:22;;;;;;;;;2.20;2.20;;;;;30.65;21.18;98631.84;6306254;27;97969;-69
2022/06/01 13:09:30;;;;;;;;;3.00;2.00;;;;;30.52;21.68;98630.34;6304076;27;97564;-72
2022/06/01 13:12:35;;;;;;;;;4.00;4.00;;;;;30.44;20.96;98629.34;6305750;27;97129;-71
2022/06/01 13:15:43;;;;;;;;;2.00;2.00;;;;;30.46;21.15;98632.56;6323174;27;96645;-71
2022/06/01 13:18:47;;;;;;;;;4.00;4.00;;;;;30.54;21.31;98633.59;6308945;27;96821;-70
2022/06/01 13:22:05;;;;;;;;;3.00;2.00;;;;;30.61;21.75;98610.66;6307563;27;98634;-68
2022/06/01 13:25:14;;;;;;;;;3.00;3.00;;;;;30.54;21.09;98617.66;6288471;27;96770;-68
2022/06/01 13:28:18;;;;;;;;;3.00;2.00;;;;;30.49;20.23;98614.38;6249971;27;99581;-71
2022/06/01 13:31:24;;;;;;;;;4.00;4.00;;;;;30.42;21.50;98614.16;6201945;28;97387;-68
2022/06/01 13:34:33;;;;;;;;;3.50;3.00;;;;;30.76;21.38;98624.56;6270028;27;96975;-71
2022/06/01 13:37:44;;;;;;;;;2.00;2.00;;;;;30.98;21.19;98628.69;6262524;27;97529;-68
2022/06/01 13:40:55;;;;;;;;;3.00;3.00;;;;;30.98;20.05;98635.03;6186311;28;96798;-72
2022/06/01 13:43:59;;;;;;;;;2.60;2.60;;;;;31.07;20.76;98634.06;6232856;27;97486;-69
2022/06/01 13:47:04;;;;;;;;;3.00;2.00;;;;;30.96;20.87;98637.38;6252348;27;100455;-69
2022/06/01 13:50:23;;;;;;;;;2.00;2.00;;;;;30.57;20.20;98609.78;6253529;27;99802;-69
2022/06/01 13:53:32;;;;;;;;;2.00;2.00;;;;;30.44;20.68;98623.78;6185763;28;96777;-69
2022/06/01 13:56:43;;;;;;;;;3.00;3.00;;;;;30.51;20.59;98618.41;6185105;28;96833;-71
2022/06/01 13:59:55;;;;;;;;;3.00;3.00;;;;;30.51;20.82;98612.03;6252513;27;96756;-69
2022/06/01 14:03:10;;;;;;;;;2.00;2.00;;;;;30.60;20.26;98631.31;6253006;27;97016;-70
2022/06/01 14:06:14;;;;;;;;;3.00;3.00;;;;;30.41;19.55;98620.88;6251956;27;96682;-71
2022/06/01 14:09:17;;;;;;;;;3.00;3.00;;;;;30.26;19.98;98622.47;6185161;28;98741;-71
2022/06/01 14:12:22;;;;;;;;;2.00;2.00;;;;;30.12;19.74;98628.50;6252237;27;98418;-68
2022/06/01 14:15:26;;;;;;;;;3.00;3.00;;;;;30.16;19.09;98622.19;6254184;27;99418;-71
2022/06/01 14:18:33;;;;;;;;;3.00;3.00;;;;;30.24;20.20;98626.81;6252412;27;96524;-69
2022/06/01 14:21:36;;;;;;;;;2.00;2.00;;;;;30.24;20.25;98622.06;6270078;27;97543;-68
2022/06/01 14:31:26;;;;;;;;;3.00;3.00;;;;;30.13;20.34;98620.97;6184955;28;97010;-71
2022/06/01 14:34:32;;;;;;;;;2.60;2.00;;;;;30.16;19.89;98616.63;6249945;27;97455;-68
2022/06/01 14:37:36;;;;;;;;;3.00;3.00;;;;;29.94;18.97;98618.88;6251041;27;97306;-71
2022/06/01 14:40:40;;;;;;;;;2.20;2.20;;;;;29.97;19.53;98618.16;6252077;27;96600;-69
2022/06/01 14:43:43;;;;;;;;;2.33;2.33;;;;;29.94;19.47;98610.53;6253218;27;97307;-72
2022/06/01 14:46:47;;;;;;;;;2.00;2.00;;;;;29.99;19.90;98615.03;6184082;28;96995;-71
2022/06/01 14:49:52;;;;;;;;;3.50;3.00;;;;;30.16;20.18;98611.88;6267233;27;97468;-69
2022/06/01 14:52:56;;;;;;;;;2.00;2.00;;;;;29.91;18.82;98608.44;6183004;27;98298;-67
2022/06/01 14:56:00;;;;;;;;;4.00;4.00;;;;;29.91;19.37;98604.88;6185453;28;97403;-70
2022/06/01 14:59:05;;;;;;;;;3.00;3.00;;;;;29.75;19.83;98604.00;6185781;28;97582;-69
2022/06/01 15:02:12;;;;;;;;;3.00;3.00;;;;;29.76;19.69;98606.44;6184964;28;96654;-71
2022/06/01 15:05:18;;;;;;;;;2.00;2.00;;;;;29.88;19.93;98602.78;6186064;27;96522;-73
2022/06/01 15:08:21;;;;;;;;;2.25;2.00;;;;;29.63;19.63;98610.41;6252458;27;96719;-72
2022/06/01 15:11:24;;;;;;;;;2.00;2.00;;;;;29.69;20.07;98604.25;6184910;28;97616;-71
2022/06/01 15:14:28;;;;;;;;;4.00;3.00;;;;;29.73;19.77;98598.78;6184410;28;97496;-71